createdAt,value
2019-03-09T00:00:59.499Z,23.53
2019-03-09T00:02:00.613Z,23.51
2019-03-09T00:03:01.831Z,23.52
2019-03-09T00:04:02.946Z,23.52
2019-03-09T00:05:04.665Z,23.59
2019-03-09T00:06:05.778Z,23.54
2019-03-09T00:07:07.193Z,23.55
2019-03-09T00:08:08.304Z,23.68
2019-03-09T00:09:09.411Z,23.66
2019-03-09T00:10:10.649Z,23.60
2019-03-09T00:11:11.768Z,23.58
2019-03-09T00:12:12.874Z,23.58
2019-03-09T00:13:13.983Z,23.64
2019-03-09T00:14:15.103Z,23.54
2019-03-09T00:15:16.416Z,23.61
2019-03-09T00:16:17.528Z,23.67
2019-03-09T00:17:18.950Z,23.69
2019-03-09T00:18:20.168Z,23.69
2019-03-09T00:19:21.279Z,23.62
2019-03-09T00:20:22.413Z,23.62
2019-03-09T00:21:24.213Z,23.70
2019-03-09T00:22:25.324Z,23.71
2019-03-09T00:23:31.044Z,23.72
2019-03-09T00:24:39.882Z,23.74
2019-03-09T00:25:57.013Z,23.72
2019-03-09T00:27:04.589Z,23.74
2019-03-09T00:28:07.614Z,23.77
2019-03-09T00:29:16.444Z,23.75
2019-03-09T00:30:19.458Z,23.70
2019-03-09T00:31:31.175Z,23.64
2019-03-09T00:32:32.289Z,23.69
2019-03-09T00:33:33.408Z,23.69
2019-03-09T00:34:34.620Z,23.75
2019-03-09T00:35:35.740Z,23.71
2019-03-09T00:36:37.252Z,23.80
2019-03-09T00:37:38.371Z,23.83
2019-03-09T00:38:39.593Z,23.85
2019-03-09T00:39:40.708Z,23.90
2019-03-09T00:40:41.825Z,23.86
2019-03-09T00:41:42.953Z,23.88
2019-03-09T00:42:44.060Z,23.92
2019-03-09T00:43:45.180Z,23.79
2019-03-09T00:44:46.294Z,23.79
2019-03-09T00:45:47.407Z,23.82
2019-03-09T00:46:49.078Z,23.80
2019-03-09T00:47:50.225Z,23.81
2019-03-09T00:48:51.340Z,23.73
2019-03-09T00:49:52.452Z,23.72
2019-03-09T00:50:53.565Z,23.74
2019-03-09T00:51:54.715Z,23.71
2019-03-09T00:52:55.826Z,23.73
2019-03-09T00:53:56.941Z,23.71
2019-03-09T00:54:58.052Z,23.66
2019-03-09T00:55:59.168Z,23.71
2019-03-09T00:57:00.346Z,23.72
2019-03-09T00:58:01.446Z,23.67
2019-03-09T00:59:02.562Z,23.68
2019-03-09T01:00:10.086Z,23.72
2019-03-09T01:01:11.597Z,23.72
2019-03-09T01:02:13.172Z,23.70
2019-03-09T01:03:14.285Z,23.65
2019-03-09T01:04:15.405Z,23.62
2019-03-09T01:05:16.620Z,23.72
2019-03-09T01:06:17.736Z,23.67
2019-03-09T01:07:18.864Z,23.75
2019-03-09T01:08:19.978Z,23.69
2019-03-09T01:09:21.199Z,23.72
2019-03-09T01:10:22.313Z,23.79
2019-03-09T01:11:23.932Z,23.70
2019-03-09T01:12:25.057Z,23.64
2019-03-09T01:13:26.178Z,23.61
2019-03-09T01:14:27.293Z,23.67
2019-03-09T01:15:28.406Z,23.72
2019-03-09T01:16:29.518Z,23.66
2019-03-09T01:17:30.903Z,23.63
2019-03-09T01:18:32.015Z,23.69
2019-03-09T01:19:33.127Z,23.61
2019-03-09T01:20:34.241Z,23.61
2019-03-09T01:21:35.362Z,23.76
2019-03-09T01:22:36.593Z,23.72
2019-03-09T01:23:38.267Z,23.70
2019-03-09T01:24:39.367Z,23.69
2019-03-09T01:25:40.476Z,23.66
2019-03-09T01:26:41.593Z,23.67
2019-03-09T01:27:42.741Z,23.60
2019-03-09T01:28:43.854Z,23.64
2019-03-09T01:29:44.975Z,23.56
2019-03-09T01:30:46.189Z,23.58
2019-03-09T01:31:47.417Z,23.61
2019-03-09T01:32:48.558Z,23.68
2019-03-09T01:33:49.677Z,23.68
2019-03-09T01:34:50.790Z,23.63
2019-03-09T01:35:51.906Z,23.48
2019-03-09T01:36:53.127Z,23.50
2019-03-09T01:37:54.280Z,23.56
2019-03-09T01:38:55.408Z,23.72
2019-03-09T01:39:56.619Z,23.66
2019-03-09T01:40:57.728Z,23.66
2019-03-09T01:41:58.836Z,23.57
2019-03-09T01:42:59.964Z,23.63
2019-03-09T01:44:01.074Z,23.54
2019-03-09T01:45:03.399Z,23.52
2019-03-09T01:46:04.501Z,23.69
2019-03-09T01:47:05.613Z,23.55
2019-03-09T01:48:06.749Z,23.54
2019-03-09T01:49:07.876Z,23.51
2019-03-09T01:50:09.293Z,23.54
2019-03-09T01:51:10.502Z,23.54
2019-03-09T01:52:11.613Z,23.52
2019-03-09T01:53:12.778Z,23.54
2019-03-09T01:54:14.405Z,23.54
2019-03-09T01:55:15.514Z,23.44
2019-03-09T01:56:16.632Z,23.46
2019-03-09T01:57:17.750Z,23.47
2019-03-09T01:58:18.880Z,23.43
2019-03-09T01:59:19.995Z,23.58
2019-03-09T02:00:21.112Z,23.61
2019-03-09T02:01:22.422Z,23.67
2019-03-09T02:02:23.640Z,23.62
2019-03-09T02:03:24.792Z,23.61
2019-03-09T02:04:25.899Z,23.59
2019-03-09T02:05:27.012Z,23.44
2019-03-09T02:06:28.224Z,23.65
2019-03-09T02:07:29.431Z,23.53
2019-03-09T02:08:30.584Z,23.49
2019-03-09T02:09:31.729Z,23.53
2019-03-09T02:10:33.037Z,23.51
2019-03-09T02:11:34.266Z,23.49
2019-03-09T02:12:35.386Z,23.52
2019-03-09T02:13:36.510Z,23.45
2019-03-09T02:14:37.724Z,23.39
2019-03-09T02:15:38.936Z,23.52
2019-03-09T02:16:40.044Z,23.47
2019-03-09T02:17:41.257Z,23.53
2019-03-09T02:18:42.405Z,23.52
2019-03-09T02:19:43.518Z,23.56
2019-03-09T02:20:44.627Z,23.52
2019-03-09T02:21:45.744Z,23.57
2019-03-09T02:22:46.869Z,23.52
2019-03-09T02:23:48.167Z,23.49
2019-03-09T02:24:49.280Z,23.55
2019-03-09T02:25:50.391Z,23.57
2019-03-09T02:26:51.522Z,23.47
2019-03-09T02:27:52.639Z,23.48
2019-03-09T02:28:53.769Z,23.47
2019-03-09T02:29:54.887Z,23.41
2019-03-09T02:30:56.108Z,23.39
2019-03-09T02:31:57.717Z,23.44
2019-03-09T02:32:58.829Z,23.37
2019-03-09T02:34:00.161Z,23.41
2019-03-09T02:35:01.508Z,23.36
2019-03-09T02:36:02.608Z,23.48
2019-03-09T02:37:03.717Z,23.42
2019-03-09T02:38:06.739Z,23.52
2019-03-09T02:39:10.289Z,23.50
2019-03-09T02:40:19.714Z,23.47
2019-03-09T02:41:20.828Z,23.47
2019-03-09T02:42:21.947Z,23.42
2019-03-09T02:43:23.064Z,23.49
2019-03-09T02:44:24.198Z,23.42
2019-03-09T02:45:27.106Z,23.40
2019-03-09T02:46:28.220Z,23.37
2019-03-09T02:47:29.345Z,23.41
2019-03-09T02:48:30.489Z,23.44
2019-03-09T02:49:31.619Z,23.49
2019-03-09T02:50:32.833Z,23.58
2019-03-09T02:51:33.953Z,23.49
2019-03-09T02:52:35.064Z,23.39
2019-03-09T02:53:36.185Z,23.41
2019-03-09T02:54:37.336Z,23.35
2019-03-09T02:55:38.457Z,23.40
2019-03-09T02:56:39.674Z,23.40
2019-03-09T02:57:40.786Z,23.44
2019-03-09T02:58:41.898Z,23.42
2019-03-09T02:59:43.050Z,23.36
2019-03-09T03:00:54.890Z,23.35
2019-03-09T03:02:03.443Z,23.36
2019-03-09T03:03:06.448Z,23.29
2019-03-09T03:04:07.677Z,23.33
2019-03-09T03:05:09.388Z,23.40
2019-03-09T03:06:10.503Z,23.46
2019-03-09T03:07:11.718Z,23.43
2019-03-09T03:08:12.855Z,23.36
2019-03-09T03:09:13.981Z,23.38
2019-03-09T03:10:15.528Z,23.43
2019-03-09T03:11:16.652Z,23.37
2019-03-09T03:12:17.765Z,23.32
2019-03-09T03:13:18.884Z,23.25
2019-03-09T03:14:20.007Z,23.28
2019-03-09T03:15:32.650Z,23.32
2019-03-09T03:16:33.872Z,23.38
2019-03-09T03:17:35.002Z,23.41
2019-03-09T03:18:36.101Z,23.33
2019-03-09T03:19:37.231Z,23.39
2019-03-09T03:20:38.490Z,23.49
2019-03-09T03:21:39.609Z,23.51
2019-03-09T03:22:40.723Z,23.42
2019-03-09T03:23:41.837Z,23.35
2019-03-09T03:24:42.958Z,23.35
2019-03-09T03:25:44.310Z,23.40
2019-03-09T03:26:45.426Z,23.32
2019-03-09T03:27:46.558Z,23.27
2019-03-09T03:28:59.343Z,23.33
2019-03-09T03:30:00.614Z,23.41
2019-03-09T03:31:01.796Z,23.30
2019-03-09T03:32:02.922Z,23.33
2019-03-09T03:33:04.007Z,23.24
2019-03-09T03:34:05.190Z,23.25
2019-03-09T03:35:07.615Z,23.33
2019-03-09T03:36:08.847Z,23.33
2019-03-09T03:37:09.965Z,23.28
2019-03-09T03:38:11.079Z,23.35
2019-03-09T03:39:12.196Z,23.37
2019-03-09T03:40:13.508Z,23.36
2019-03-09T03:41:14.840Z,23.22
2019-03-09T03:42:16.065Z,23.25
2019-03-09T03:43:17.158Z,23.25
2019-03-09T03:44:18.275Z,23.30
2019-03-09T03:45:19.482Z,23.25
2019-03-09T03:46:20.743Z,23.32
2019-03-09T03:47:21.865Z,23.40
2019-03-09T03:48:22.992Z,23.34
2019-03-09T03:49:25.153Z,23.25
2019-03-09T03:50:26.267Z,23.37
2019-03-09T03:51:27.504Z,23.27
2019-03-09T03:52:28.622Z,23.30
2019-03-09T03:53:29.847Z,23.34
2019-03-09T03:54:30.982Z,23.33
2019-03-09T03:55:32.066Z,23.21
2019-03-09T03:56:33.223Z,23.16
2019-03-09T03:57:34.342Z,23.17
2019-03-09T03:58:35.746Z,23.17
2019-03-09T03:59:36.850Z,23.22
2019-03-09T04:00:38.161Z,23.21
2019-03-09T04:01:39.382Z,23.20
2019-03-09T04:02:40.490Z,23.15
2019-03-09T04:03:41.605Z,23.20
2019-03-09T04:04:42.722Z,23.29
2019-03-09T04:05:44.028Z,23.28
2019-03-09T04:06:45.442Z,23.23
2019-03-09T04:07:46.535Z,23.17
2019-03-09T04:08:47.750Z,23.27
2019-03-09T04:09:49.162Z,23.22
2019-03-09T04:10:50.380Z,23.28
2019-03-09T04:11:51.499Z,23.19
2019-03-09T04:12:52.715Z,23.16
2019-03-09T04:13:54.025Z,23.27
2019-03-09T04:14:55.244Z,23.28
2019-03-09T04:15:56.358Z,23.14
2019-03-09T04:16:57.486Z,23.19
2019-03-09T04:17:58.593Z,23.24
2019-03-09T04:18:59.731Z,23.20
2019-03-09T04:20:00.942Z,23.22
2019-03-09T04:21:02.202Z,23.21
2019-03-09T04:22:03.500Z,23.12
2019-03-09T04:23:04.719Z,23.05
2019-03-09T04:24:05.887Z,23.07
2019-03-09T04:25:07.953Z,23.14
2019-03-09T04:26:09.061Z,23.11
2019-03-09T04:27:10.186Z,23.09
2019-03-09T04:28:11.397Z,23.15
2019-03-09T04:29:12.512Z,23.19
2019-03-09T04:30:13.726Z,23.17
2019-03-09T04:31:15.219Z,23.23
2019-03-09T04:32:16.337Z,23.20
2019-03-09T04:33:17.450Z,23.14
2019-03-09T04:34:18.711Z,23.17
2019-03-09T04:35:19.835Z,23.21
2019-03-09T04:36:20.945Z,23.18
2019-03-09T04:37:22.069Z,23.13
2019-03-09T04:38:23.182Z,23.13
2019-03-09T04:39:24.306Z,23.15
2019-03-09T04:40:25.520Z,23.17
2019-03-09T04:41:26.632Z,23.13
2019-03-09T04:42:27.888Z,23.13
2019-03-09T04:43:29.000Z,23.07
2019-03-09T04:44:30.134Z,23.17
2019-03-09T04:45:31.232Z,23.19
2019-03-09T04:46:32.453Z,23.08
2019-03-09T04:47:33.594Z,23.05
2019-03-09T04:48:34.714Z,23.04
2019-03-09T04:49:35.839Z,23.04
2019-03-09T04:50:36.948Z,23.08
2019-03-09T04:51:38.065Z,23.19
2019-03-09T04:52:39.194Z,23.13
2019-03-09T04:53:40.416Z,23.15
2019-03-09T04:54:41.531Z,23.14
2019-03-09T04:55:42.794Z,23.10
2019-03-09T04:56:43.953Z,23.06
2019-03-09T04:57:45.076Z,23.04
2019-03-09T04:58:46.192Z,23.06
2019-03-09T04:59:47.308Z,23.11
2019-03-09T05:00:48.533Z,22.93
2019-03-09T05:01:49.645Z,22.97
2019-03-09T05:02:50.772Z,23.03
2019-03-09T05:04:20.201Z,23.08
2019-03-09T05:05:21.320Z,22.95
2019-03-09T05:06:22.537Z,22.99
2019-03-09T05:07:25.948Z,22.98
2019-03-09T05:08:30.681Z,23.07
2019-03-09T05:09:56.904Z,23.06
2019-03-09T05:11:01.436Z,23.08
2019-03-09T05:12:02.664Z,22.98
2019-03-09T05:13:07.192Z,23.00
2019-03-09T05:14:08.316Z,23.01
2019-03-09T05:15:12.243Z,23.07
2019-03-09T05:16:13.348Z,23.08
2019-03-09T05:17:14.524Z,23.11
2019-03-09T05:18:15.644Z,23.05
2019-03-09T05:19:16.976Z,23.07
2019-03-09T05:20:18.089Z,23.08
2019-03-09T05:21:19.207Z,23.04
2019-03-09T05:22:20.422Z,23.04
2019-03-09T05:23:21.544Z,23.12
2019-03-09T05:24:22.671Z,23.09
2019-03-09T05:25:23.781Z,23.03
2019-03-09T05:26:24.903Z,22.96
2019-03-09T05:27:26.016Z,22.91
2019-03-09T05:28:27.141Z,22.92
2019-03-09T05:29:28.397Z,23.04
2019-03-09T05:30:42.290Z,23.03
2019-03-09T05:31:43.403Z,22.98
2019-03-09T05:32:44.522Z,23.04
2019-03-09T05:33:45.810Z,23.04
2019-03-09T05:34:47.084Z,23.04
2019-03-09T05:35:48.198Z,23.04
2019-03-09T05:36:49.321Z,23.02
2019-03-09T05:37:50.432Z,23.00
2019-03-09T05:38:51.661Z,23.07
2019-03-09T05:39:52.788Z,23.10
2019-03-09T05:40:53.911Z,23.08
2019-03-09T05:41:55.029Z,23.04
2019-03-09T05:42:56.215Z,23.04
2019-03-09T05:43:57.359Z,23.03
2019-03-09T05:44:58.609Z,23.04
2019-03-09T05:45:59.729Z,23.01
2019-03-09T05:47:00.845Z,23.04
2019-03-09T05:48:01.981Z,23.02
2019-03-09T05:49:03.287Z,23.06
2019-03-09T05:50:06.240Z,22.95
2019-03-09T05:51:07.471Z,22.96
2019-03-09T05:52:21.052Z,23.03
2019-03-09T05:53:22.164Z,22.99
2019-03-09T05:54:23.276Z,22.96
2019-03-09T05:55:24.534Z,23.03
2019-03-09T05:56:26.052Z,22.98
2019-03-09T05:57:27.208Z,22.98
2019-03-09T05:58:28.282Z,22.91
2019-03-09T05:59:29.500Z,22.79
2019-03-09T06:00:30.932Z,22.84
2019-03-09T06:01:32.048Z,22.98
2019-03-09T06:02:33.164Z,23.02
2019-03-09T06:03:34.283Z,22.97
2019-03-09T06:04:35.398Z,23.03
2019-03-09T06:05:45.611Z,22.95
2019-03-09T06:06:46.731Z,22.99
2019-03-09T06:07:47.837Z,22.95
2019-03-09T06:08:48.960Z,22.96
2019-03-09T06:09:50.075Z,22.97
2019-03-09T06:10:51.310Z,23.02
2019-03-09T06:11:52.437Z,22.97
2019-03-09T06:12:53.548Z,22.99
2019-03-09T06:13:54.674Z,23.02
2019-03-09T06:14:55.791Z,23.01
2019-03-09T06:15:56.933Z,23.00
2019-03-09T06:16:58.028Z,22.93
2019-03-09T06:17:59.144Z,22.92
2019-03-09T06:19:00.259Z,22.92
2019-03-09T06:20:01.378Z,22.97
2019-03-09T06:21:02.506Z,22.95
2019-03-09T06:22:03.616Z,23.06
2019-03-09T06:23:04.727Z,22.99
2019-03-09T06:24:05.852Z,22.96
2019-03-09T06:25:07.168Z,22.96
2019-03-09T06:26:08.448Z,22.97
2019-03-09T06:27:09.565Z,22.94
2019-03-09T06:28:10.701Z,22.90
2019-03-09T06:29:11.926Z,22.86
2019-03-09T06:30:13.640Z,22.99
2019-03-09T06:31:14.766Z,22.95
2019-03-09T06:32:34.780Z,22.92
2019-03-09T06:33:35.894Z,22.97
2019-03-09T06:34:37.004Z,22.96
2019-03-09T06:35:38.116Z,22.82
2019-03-09T06:36:45.623Z,22.77
2019-03-09T06:37:53.081Z,22.81
2019-03-09T06:38:56.892Z,22.80
2019-03-09T06:39:58.005Z,22.86
2019-03-09T06:41:02.953Z,22.87
2019-03-09T06:42:11.813Z,22.89
2019-03-09T06:43:12.930Z,22.92
2019-03-09T06:44:14.128Z,22.93
2019-03-09T06:45:15.254Z,22.88
2019-03-09T06:46:16.369Z,22.92
2019-03-09T06:47:17.500Z,22.94
2019-03-09T06:48:18.634Z,22.85
2019-03-09T06:49:19.742Z,22.84
2019-03-09T06:50:20.864Z,22.86
2019-03-09T06:51:21.981Z,22.84
2019-03-09T06:52:23.134Z,22.83
2019-03-09T06:53:24.247Z,22.75
2019-03-09T06:54:25.366Z,22.78
2019-03-09T06:55:26.591Z,22.81
2019-03-09T06:56:27.694Z,22.80
2019-03-09T06:57:28.853Z,22.75
2019-03-09T06:58:29.972Z,22.81
2019-03-09T06:59:31.089Z,22.77
2019-03-09T07:00:34.500Z,22.82
2019-03-09T07:01:35.612Z,22.78
2019-03-09T07:02:36.744Z,22.84
2019-03-09T07:03:37.855Z,22.84
2019-03-09T07:04:38.972Z,22.80
2019-03-09T07:05:40.087Z,22.84
2019-03-09T07:06:41.207Z,22.82
2019-03-09T07:07:42.329Z,22.82
2019-03-09T07:08:43.436Z,22.82
2019-03-09T07:09:44.649Z,22.75
2019-03-09T07:10:45.790Z,22.71
2019-03-09T07:11:46.878Z,22.72
2019-03-09T07:12:48.008Z,22.62
2019-03-09T07:13:52.936Z,22.65
2019-03-09T07:14:58.772Z,22.66
2019-03-09T07:15:59.919Z,22.64
2019-03-09T07:17:01.136Z,22.57
2019-03-09T07:18:04.760Z,22.50
2019-03-09T07:19:05.872Z,22.41
2019-03-09T07:20:12.663Z,22.32
2019-03-09T07:21:11.105Z,22.22
2019-03-09T07:22:12.384Z,22.19
2019-03-09T07:23:13.536Z,22.17
2019-03-09T07:24:14.753Z,22.03
2019-03-09T07:25:15.866Z,21.98
2019-03-09T07:26:16.990Z,21.95
2019-03-09T07:27:18.102Z,21.80
2019-03-09T07:28:19.340Z,21.72
2019-03-09T07:29:20.453Z,21.59
2019-03-09T07:30:21.673Z,21.45
2019-03-09T07:31:22.893Z,21.32
2019-03-09T07:32:24.014Z,21.22
2019-03-09T07:33:25.167Z,21.15
2019-03-09T07:34:26.381Z,21.02
2019-03-09T07:35:27.631Z,20.96
2019-03-09T07:36:28.745Z,20.84
2019-03-09T07:37:29.860Z,20.76
2019-03-09T07:38:31.031Z,20.65
2019-03-09T07:39:32.241Z,20.61
2019-03-09T07:40:33.352Z,20.55
2019-03-09T07:41:34.473Z,20.51
2019-03-09T07:42:35.589Z,20.43
2019-03-09T07:43:36.856Z,20.33
2019-03-09T07:44:37.974Z,20.20
2019-03-09T07:45:39.088Z,20.16
2019-03-09T07:46:40.205Z,20.07
2019-03-09T07:47:41.318Z,20.05
2019-03-09T07:48:42.454Z,19.95
2019-03-09T07:49:43.566Z,19.88
2019-03-09T07:50:44.697Z,19.79
2019-03-09T07:51:45.830Z,19.76
2019-03-09T07:52:46.937Z,19.74
2019-03-09T07:53:48.070Z,19.71
2019-03-09T07:54:49.190Z,19.63
2019-03-09T07:55:50.300Z,19.67
2019-03-09T07:56:51.548Z,19.61
2019-03-09T07:57:58.164Z,19.58
2019-03-09T07:58:59.318Z,19.61
2019-03-09T08:00:00.425Z,19.58
2019-03-09T08:01:01.548Z,19.56
2019-03-09T08:02:02.661Z,19.60
2019-03-09T08:03:03.976Z,19.62
2019-03-09T08:04:05.146Z,19.58
2019-03-09T08:05:07.243Z,19.56
2019-03-09T08:06:08.364Z,19.60
2019-03-09T08:07:09.478Z,19.60
2019-03-09T08:08:10.601Z,19.56
2019-03-09T08:09:11.725Z,19.50
2019-03-09T08:10:15.837Z,19.53
2019-03-09T08:11:17.009Z,19.48
2019-03-09T08:12:18.122Z,19.48
2019-03-09T08:13:19.238Z,19.44
2019-03-09T08:14:20.397Z,19.41
2019-03-09T08:15:21.511Z,19.40
2019-03-09T08:16:22.627Z,19.35
2019-03-09T08:17:23.741Z,19.41
2019-03-09T08:18:24.857Z,19.36
2019-03-09T08:19:26.042Z,19.37
2019-03-09T08:20:27.156Z,19.34
2019-03-09T08:21:28.278Z,19.36
2019-03-09T08:22:29.395Z,19.38
2019-03-09T08:23:30.519Z,19.35
2019-03-09T08:24:31.646Z,19.32
2019-03-09T08:25:32.760Z,19.30
2019-03-09T08:26:33.872Z,19.29
2019-03-09T08:27:35.119Z,19.30
2019-03-09T08:28:36.230Z,19.33
2019-03-09T08:29:37.460Z,19.31
2019-03-09T08:30:38.578Z,19.32
2019-03-09T08:31:39.692Z,19.32
2019-03-09T08:32:40.821Z,19.34
2019-03-09T08:33:41.930Z,19.31
2019-03-09T08:34:43.205Z,19.27
2019-03-09T08:35:44.281Z,19.30
2019-03-09T08:36:45.388Z,19.30
2019-03-09T08:37:47.503Z,19.29
2019-03-09T08:38:48.613Z,19.27
2019-03-09T08:39:49.849Z,19.29
2019-03-09T08:40:51.064Z,19.25
2019-03-09T08:41:52.233Z,19.25
2019-03-09T08:42:53.323Z,19.25
2019-03-09T08:43:54.575Z,19.25
2019-03-09T08:44:55.941Z,19.30
2019-03-09T08:45:57.086Z,19.29
2019-03-09T08:46:58.170Z,19.26
2019-03-09T08:47:59.405Z,19.27
2019-03-09T08:49:00.522Z,19.33
2019-03-09T08:50:03.248Z,19.29
2019-03-09T08:51:04.361Z,19.26
2019-03-09T08:52:05.492Z,19.26
2019-03-09T08:53:06.599Z,19.29
2019-03-09T08:54:07.716Z,19.31
2019-03-09T08:55:10.039Z,19.33
2019-03-09T08:56:11.149Z,19.32
2019-03-09T08:57:12.269Z,19.29
2019-03-09T08:58:13.517Z,19.30
2019-03-09T08:59:14.602Z,19.31
2019-03-09T09:00:24.476Z,19.31
2019-03-09T09:01:25.643Z,19.29
2019-03-09T09:02:26.747Z,19.25
2019-03-09T09:03:27.860Z,19.33
2019-03-09T09:04:28.976Z,19.34
2019-03-09T09:05:30.107Z,19.34
2019-03-09T09:06:31.220Z,19.38
2019-03-09T09:07:32.339Z,19.36
2019-03-09T09:08:33.449Z,19.35
2019-03-09T09:09:34.569Z,19.35
2019-03-09T09:10:35.683Z,19.33
2019-03-09T09:11:36.800Z,19.36
2019-03-09T09:12:37.912Z,19.41
2019-03-09T09:13:39.028Z,19.45
2019-03-09T09:14:40.146Z,19.44
2019-03-09T09:15:41.406Z,19.43
2019-03-09T09:16:42.620Z,19.45
2019-03-09T09:17:43.830Z,19.56
2019-03-09T09:18:44.940Z,19.85
2019-03-09T09:19:46.055Z,19.79
2019-03-09T09:20:47.178Z,19.71
2019-03-09T09:21:48.292Z,19.64
2019-03-09T09:22:49.406Z,19.55
2019-03-09T09:23:50.617Z,19.51
2019-03-09T09:24:51.733Z,19.51
2019-03-09T09:25:53.064Z,19.51
2019-03-09T09:26:54.189Z,19.50
2019-03-09T09:27:55.294Z,19.52
2019-03-09T09:28:56.404Z,19.53
2019-03-09T09:29:57.520Z,19.60
2019-03-09T09:30:58.823Z,19.50
2019-03-09T09:31:59.937Z,19.46
2019-03-09T09:33:01.152Z,19.44
2019-03-09T09:34:02.366Z,19.53
2019-03-09T09:35:07.140Z,19.56
2019-03-09T09:36:08.313Z,19.52
2019-03-09T09:37:09.424Z,19.57
2019-03-09T09:38:10.548Z,19.63
2019-03-09T09:39:11.654Z,19.57
2019-03-09T09:40:18.269Z,19.58
2019-03-09T09:41:19.402Z,19.56
2019-03-09T09:42:20.772Z,19.57
2019-03-09T09:43:21.877Z,19.58
2019-03-09T09:44:22.997Z,19.55
2019-03-09T09:45:24.424Z,19.57
2019-03-09T09:46:25.532Z,19.54
2019-03-09T09:47:26.648Z,19.62
2019-03-09T09:48:27.880Z,19.68
2019-03-09T09:49:28.996Z,19.68
2019-03-09T09:50:30.138Z,19.76
2019-03-09T09:51:31.277Z,19.76
2019-03-09T09:52:32.399Z,19.68
2019-03-09T09:53:33.509Z,19.71
2019-03-09T09:54:34.623Z,19.66
2019-03-09T09:55:35.736Z,19.75
2019-03-09T09:56:36.866Z,19.70
2019-03-09T09:57:38.081Z,19.75
2019-03-09T09:58:39.194Z,19.74
2019-03-09T09:59:40.305Z,19.81
2019-03-09T10:00:41.421Z,19.78
2019-03-09T10:01:42.767Z,19.79
2019-03-09T10:02:43.883Z,19.89
2019-03-09T10:03:44.997Z,19.87
2019-03-09T10:04:46.112Z,19.77
2019-03-09T10:05:47.224Z,19.76
2019-03-09T10:06:48.540Z,19.84
2019-03-09T10:07:49.852Z,19.82
2019-03-09T10:08:50.966Z,19.81
2019-03-09T10:09:52.080Z,19.85
2019-03-09T10:10:53.210Z,19.82
2019-03-09T10:11:54.518Z,19.83
2019-03-09T10:12:56.199Z,19.81
2019-03-09T10:13:57.725Z,19.80
2019-03-09T10:14:58.841Z,19.79
2019-03-09T10:15:59.961Z,19.86
2019-03-09T10:17:01.194Z,19.83
2019-03-09T10:18:02.312Z,19.78
2019-03-09T10:19:03.527Z,19.78
2019-03-09T10:20:08.052Z,19.80
2019-03-09T10:21:09.171Z,19.88
2019-03-09T10:22:10.564Z,19.87
2019-03-09T10:23:11.681Z,19.84
2019-03-09T10:24:12.817Z,19.78
2019-03-09T10:25:14.118Z,19.84
2019-03-09T10:26:15.226Z,19.84
2019-03-09T10:27:16.452Z,19.86
2019-03-09T10:28:17.584Z,19.93
2019-03-09T10:29:18.806Z,19.90
2019-03-09T10:30:23.557Z,19.88
2019-03-09T10:31:24.668Z,19.90
2019-03-09T10:32:25.781Z,19.95
2019-03-09T10:33:26.914Z,19.87
2019-03-09T10:34:28.134Z,19.85
2019-03-09T10:35:29.248Z,19.91
2019-03-09T10:36:30.368Z,19.98
2019-03-09T10:37:31.486Z,20.10
2019-03-09T10:38:32.616Z,20.11
2019-03-09T10:39:33.836Z,19.99
2019-03-09T10:40:35.058Z,19.96
2019-03-09T10:41:36.174Z,20.02
2019-03-09T10:42:37.296Z,20.00
2019-03-09T10:43:38.436Z,19.94
2019-03-09T10:44:39.555Z,19.92
2019-03-09T10:45:40.670Z,19.88
2019-03-09T10:46:41.796Z,19.84
2019-03-09T10:47:43.010Z,19.82
2019-03-09T10:48:44.340Z,19.87
2019-03-09T10:49:45.447Z,19.84
2019-03-09T10:50:46.610Z,19.84
2019-03-09T10:51:47.728Z,19.90
2019-03-09T10:52:48.823Z,19.86
2019-03-09T10:53:50.108Z,19.80
2019-03-09T10:54:51.226Z,19.86
2019-03-09T10:55:52.382Z,19.88
2019-03-09T10:56:53.460Z,19.86
2019-03-09T10:57:54.577Z,19.85
2019-03-09T10:58:55.804Z,19.85
2019-03-09T10:59:56.921Z,19.86
2019-03-09T11:00:58.040Z,19.93
2019-03-09T11:01:59.327Z,19.97
2019-03-09T11:03:00.540Z,19.93
2019-03-09T11:04:01.705Z,19.95
2019-03-09T11:05:04.215Z,19.96
2019-03-09T11:06:05.428Z,20.00
2019-03-09T11:07:06.690Z,20.03
2019-03-09T11:08:07.804Z,19.99
2019-03-09T11:09:09.268Z,19.96
2019-03-09T11:10:10.676Z,20.05
2019-03-09T11:11:11.788Z,20.05
2019-03-09T11:12:12.904Z,19.97
2019-03-09T11:13:14.016Z,19.99
2019-03-09T11:14:15.344Z,19.98
2019-03-09T11:15:16.662Z,19.99
2019-03-09T11:16:20.087Z,20.01
2019-03-09T11:17:21.212Z,20.00
2019-03-09T11:18:22.331Z,19.99
2019-03-09T11:19:23.461Z,19.98
2019-03-09T11:20:24.569Z,20.01
2019-03-09T11:21:25.784Z,19.95
2019-03-09T11:22:26.896Z,19.91
2019-03-09T11:23:28.020Z,19.94
2019-03-09T11:24:29.235Z,19.94
2019-03-09T11:25:30.348Z,19.93
2019-03-09T11:26:31.460Z,19.89
2019-03-09T11:27:32.572Z,19.94
2019-03-09T11:28:33.692Z,20.01
2019-03-09T11:29:35.018Z,19.99
2019-03-09T11:30:36.125Z,19.96
2019-03-09T11:31:37.247Z,19.92
2019-03-09T11:32:38.363Z,19.98
2019-03-09T11:33:39.482Z,19.98
2019-03-09T11:34:40.632Z,19.98
2019-03-09T11:35:41.776Z,20.01
2019-03-09T11:36:42.862Z,20.04
2019-03-09T11:37:43.972Z,20.01
2019-03-09T11:38:45.084Z,20.02
2019-03-09T11:39:46.243Z,20.05
2019-03-09T11:40:56.886Z,20.06
2019-03-09T11:41:50.478Z,20.04
2019-03-09T11:42:51.594Z,20.01
2019-03-09T11:43:52.704Z,20.08
2019-03-09T11:44:53.831Z,20.12
2019-03-09T11:45:54.948Z,20.07
2019-03-09T11:46:56.580Z,20.03
2019-03-09T11:47:57.692Z,20.08
2019-03-09T11:48:58.816Z,20.12
2019-03-09T11:50:00.327Z,20.09
2019-03-09T11:51:01.464Z,20.12
2019-03-09T11:52:02.696Z,20.12
2019-03-09T11:53:03.906Z,20.16
2019-03-09T11:54:05.070Z,20.17
2019-03-09T11:55:08.046Z,20.12
2019-03-09T11:56:09.163Z,20.18
2019-03-09T11:57:10.272Z,20.18
2019-03-09T11:58:11.391Z,20.18
2019-03-09T11:59:12.507Z,20.12
2019-03-09T12:00:21.016Z,20.11
2019-03-09T12:01:22.233Z,20.11
2019-03-09T12:02:23.373Z,20.16
2019-03-09T12:03:24.491Z,20.14
2019-03-09T12:04:25.631Z,20.12
2019-03-09T12:05:26.771Z,20.18
2019-03-09T12:06:27.981Z,20.19
2019-03-09T12:07:29.096Z,20.13
2019-03-09T12:08:30.216Z,20.14
2019-03-09T12:09:31.329Z,20.20
2019-03-09T12:10:32.654Z,20.19
2019-03-09T12:11:33.790Z,20.19
2019-03-09T12:12:34.891Z,20.20
2019-03-09T12:13:36.004Z,20.20
2019-03-09T12:14:37.117Z,20.20
2019-03-09T12:15:38.260Z,20.21
2019-03-09T12:16:39.377Z,20.21
2019-03-09T12:17:40.483Z,20.19
2019-03-09T12:18:41.667Z,20.23
2019-03-09T12:19:42.816Z,20.22
2019-03-09T12:20:44.051Z,20.23
2019-03-09T12:21:45.270Z,20.21
2019-03-09T12:22:46.478Z,20.20
2019-03-09T12:23:47.593Z,20.24
2019-03-09T12:24:50.922Z,20.27
2019-03-09T12:25:52.048Z,20.22
2019-03-09T12:26:53.165Z,20.21
2019-03-09T12:27:54.281Z,20.21
2019-03-09T12:28:55.400Z,20.16
2019-03-09T12:29:56.512Z,20.17
2019-03-09T12:30:57.776Z,20.18
2019-03-09T12:31:58.895Z,20.15
2019-03-09T12:33:00.012Z,20.16
2019-03-09T12:34:01.225Z,20.42
2019-03-09T12:35:03.440Z,20.35
2019-03-09T12:36:04.565Z,20.30
2019-03-09T12:37:05.678Z,20.20
2019-03-09T12:38:06.790Z,20.17
2019-03-09T12:39:08.716Z,20.16
2019-03-09T12:40:16.653Z,20.16
2019-03-09T12:41:17.926Z,20.16
2019-03-09T12:42:19.129Z,20.15
2019-03-09T12:43:20.242Z,20.19
2019-03-09T12:44:21.460Z,20.21
2019-03-09T12:45:22.583Z,20.22
2019-03-09T12:46:23.704Z,20.16
2019-03-09T12:47:24.817Z,20.16
2019-03-09T12:48:25.950Z,20.20
2019-03-09T12:49:27.060Z,20.21
2019-03-09T12:50:28.172Z,20.23
2019-03-09T12:51:29.461Z,20.22
2019-03-09T12:52:30.594Z,20.19
2019-03-09T12:53:31.718Z,20.14
2019-03-09T12:54:32.936Z,20.17
2019-03-09T12:55:34.154Z,20.15
2019-03-09T12:56:35.304Z,20.12
2019-03-09T12:57:36.417Z,20.20
2019-03-09T12:58:37.529Z,20.13
2019-03-09T12:59:38.641Z,20.16
2019-03-09T13:00:39.760Z,20.19
2019-03-09T13:01:40.880Z,20.22
2019-03-09T13:02:42.004Z,20.15
2019-03-09T13:03:43.123Z,20.13
2019-03-09T13:04:44.238Z,20.14
2019-03-09T13:05:46.770Z,20.15
2019-03-09T13:06:48.188Z,20.15
2019-03-09T13:07:49.308Z,20.12
2019-03-09T13:08:50.523Z,20.21
2019-03-09T13:09:51.639Z,20.14
2019-03-09T13:10:52.754Z,20.24
2019-03-09T13:11:54.036Z,20.21
2019-03-09T13:12:55.153Z,20.20
2019-03-09T13:13:56.261Z,20.17